X  Luk Metar data     EKRN Bornholm Airport
Temperatur
17°C Temperatur
15°C Duggpunkt
88% Fugtighed



Vind
1 M/S
3 MPT
5 KM/T
3 KNOB



300°
VNV
Nuværende forhold

For det meste spredte skyer For det meste spredte skyer
Tryk 1008.92 (hPa) - 29.79 (inHg)
Sigt 6.2 (mil) - 10 (km)
Lufthavn
Lufthavnskode EKRN

Lokation: Bornholm Airport
Afstand: 20 (km)

Metar:
EKRN 171220Z AUTO 30003KT 9999 SCT034/// BKN051/// 17/15 Q1009

Tid: 17-09-2021 14:20 CEST